sensor_id;sensor_type;location;lat;lon;timestamp;P1;durP1;ratioP1;P2;durP2;ratioP2
8704;SDS011;4389;41.932;25.904;2023-02-21T00:01:40;12.00;;;7.27;;
8704;SDS011;4389;41.932;25.904;2023-02-21T00:04:26;12.37;;;6.17;;
8704;SDS011;4389;41.932;25.904;2023-02-21T00:07:11;11.80;;;7.50;;
8704;SDS011;4389;41.932;25.904;2023-02-21T00:09:55;11.00;;;7.30;;
8704;SDS011;4389;41.932;25.904;2023-02-21T00:12:39;8.83;;;6.87;;
8704;SDS011;4389;41.932;25.904;2023-02-21T00:15:24;14.20;;;5.90;;
8704;SDS011;4389;41.932;25.904;2023-02-21T00:18:08;16.50;;;6.50;;
8704;SDS011;4389;41.932;25.904;2023-02-21T00:20:53;21.87;;;8.40;;
8704;SDS011;4389;41.932;25.904;2023-02-21T00:23:37;18.50;;;7.60;;
8704;SDS011;4389;41.932;25.904;2023-02-21T00:26:22;20.60;;;6.67;;
8704;SDS011;4389;41.932;25.904;2023-02-21T00:29:06;8.73;;;6.40;;
8704;SDS011;4389;41.932;25.904;2023-02-21T00:31:51;10.63;;;6.10;;
8704;SDS011;4389;41.932;25.904;2023-02-21T00:34:35;16.50;;;9.53;;
8704;SDS011;4389;41.932;25.904;2023-02-21T00:37:21;27.93;;;10.70;;
8704;SDS011;4389;41.932;25.904;2023-02-21T00:40:06;16.33;;;8.80;;
8704;SDS011;4389;41.932;25.904;2023-02-21T00:42:50;23.03;;;15.10;;
8704;SDS011;4389;41.932;25.904;2023-02-21T00:45:35;10.93;;;7.80;;
8704;SDS011;4389;41.932;25.904;2023-02-21T00:48:19;6.33;;;5.73;;
8704;SDS011;4389;41.932;25.904;2023-02-21T00:51:04;17.77;;;11.17;;
8704;SDS011;4389;41.932;25.904;2023-02-21T00:53:49;7.50;;;6.57;;
8704;SDS011;4389;41.932;25.904;2023-02-21T00:56:34;11.37;;;6.40;;
8704;SDS011;4389;41.932;25.904;2023-02-21T00:59:18;11.90;;;7.87;;
8704;SDS011;4389;41.932;25.904;2023-02-21T01:02:02;8.23;;;6.50;;
8704;SDS011;4389;41.932;25.904;2023-02-21T01:04:47;11.60;;;6.60;;
8704;SDS011;4389;41.932;25.904;2023-02-21T01:07:31;18.73;;;6.80;;
8704;SDS011;4389;41.932;25.904;2023-02-21T01:10:16;21.13;;;7.40;;
8704;SDS011;4389;41.932;25.904;2023-02-21T01:13:01;14.63;;;7.93;;
8704;SDS011;4389;41.932;25.904;2023-02-21T01:15:47;23.67;;;9.30;;
8704;SDS011;4389;41.932;25.904;2023-02-21T01:18:31;14.90;;;9.10;;
8704;SDS011;4389;41.932;25.904;2023-02-21T01:21:16;11.90;;;9.63;;
8704;SDS011;4389;41.932;25.904;2023-02-21T01:24:01;13.27;;;8.63;;
8704;SDS011;4389;41.932;25.904;2023-02-21T01:26:48;14.77;;;8.97;;
8704;SDS011;4389;41.932;25.904;2023-02-21T01:29:32;18.90;;;11.93;;
8704;SDS011;4389;41.932;25.904;2023-02-21T01:32:16;8.57;;;7.67;;
8704;SDS011;4389;41.932;25.904;2023-02-21T01:35:00;15.47;;;7.97;;
8704;SDS011;4389;41.932;25.904;2023-02-21T01:37:45;15.53;;;10.60;;
8704;SDS011;4389;41.932;25.904;2023-02-21T01:40:29;16.00;;;11.83;;
8704;SDS011;4389;41.932;25.904;2023-02-21T01:43:15;13.53;;;10.07;;
8704;SDS011;4389;41.932;25.904;2023-02-21T01:46:01;15.53;;;10.97;;
8704;SDS011;4389;41.932;25.904;2023-02-21T01:48:45;15.77;;;10.70;;
8704;SDS011;4389;41.932;25.904;2023-02-21T01:51:31;11.70;;;9.60;;
8704;SDS011;4389;41.932;25.904;2023-02-21T01:54:19;17.43;;;13.07;;
8704;SDS011;4389;41.932;25.904;2023-02-21T01:57:06;19.80;;;14.07;;
8704;SDS011;4389;41.932;25.904;2023-02-21T01:59:52;15.33;;;10.83;;
8704;SDS011;4389;41.932;25.904;2023-02-21T02:02:42;14.50;;;9.53;;
8704;SDS011;4389;41.932;25.904;2023-02-21T02:05:33;19.10;;;9.00;;
8704;SDS011;4389;41.932;25.904;2023-02-21T02:08:19;14.20;;;10.60;;
8704;SDS011;4389;41.932;25.904;2023-02-21T02:11:08;17.87;;;10.30;;
8704;SDS011;4389;41.932;25.904;2023-02-21T02:14:07;15.13;;;10.97;;
8704;SDS011;4389;41.932;25.904;2023-02-21T02:16:51;15.43;;;9.97;;
8704;SDS011;4389;41.932;25.904;2023-02-21T02:22:37;17.30;;;11.10;;
8704;SDS011;4389;41.932;25.904;2023-02-21T02:25:22;16.37;;;10.70;;
8704;SDS011;4389;41.932;25.904;2023-02-21T02:28:16;20.50;;;14.13;;
8704;SDS011;4389;41.932;25.904;2023-02-21T02:31:10;18.70;;;11.93;;
8704;SDS011;4389;41.932;25.904;2023-02-21T02:33:59;24.40;;;16.00;;
8704;SDS011;4389;41.932;25.904;2023-02-21T02:36:51;19.40;;;12.97;;
8704;SDS011;4389;41.932;25.904;2023-02-21T02:39:22;19.83;;;15.30;;
8704;SDS011;4389;41.932;25.904;2023-02-21T02:41:59;17.60;;;12.00;;
8704;SDS011;4389;41.932;25.904;2023-02-21T02:44:35;22.33;;;12.13;;
8704;SDS011;4389;41.932;25.904;2023-02-21T02:47:05;15.67;;;12.70;;
8704;SDS011;4389;41.932;25.904;2023-02-21T02:49:40;19.40;;;12.90;;
8704;SDS011;4389;41.932;25.904;2023-02-21T02:52:11;21.33;;;14.77;;
8704;SDS011;4389;41.932;25.904;2023-02-21T02:54:37;24.60;;;14.70;;
8704;SDS011;4389;41.932;25.904;2023-02-21T02:57:05;25.73;;;15.60;;
8704;SDS011;4389;41.932;25.904;2023-02-21T02:59:37;19.80;;;13.20;;
8704;SDS011;4389;41.932;25.904;2023-02-21T03:02:14;21.87;;;14.60;;
8704;SDS011;4389;41.932;25.904;2023-02-21T03:05:07;17.67;;;12.77;;
8704;SDS011;4389;41.932;25.904;2023-02-21T03:07:46;18.73;;;12.43;;
8704;SDS011;4389;41.932;25.904;2023-02-21T03:10:26;17.30;;;11.87;;
8704;SDS011;4389;41.932;25.904;2023-02-21T03:13:04;20.00;;;14.30;;
8704;SDS011;4389;41.932;25.904;2023-02-21T03:15:37;27.27;;;18.47;;
8704;SDS011;4389;41.932;25.904;2023-02-21T03:18:15;28.20;;;18.60;;
8704;SDS011;4389;41.932;25.904;2023-02-21T03:20:49;25.20;;;17.50;;
8704;SDS011;4389;41.932;25.904;2023-02-21T03:23:21;19.63;;;16.03;;
8704;SDS011;4389;41.932;25.904;2023-02-21T03:25:51;25.13;;;16.23;;
8704;SDS011;4389;41.932;25.904;2023-02-21T03:28:20;27.57;;;18.13;;
8704;SDS011;4389;41.932;25.904;2023-02-21T03:30:47;29.07;;;16.97;;
8704;SDS011;4389;41.932;25.904;2023-02-21T03:33:18;22.63;;;14.73;;
8704;SDS011;4389;41.932;25.904;2023-02-21T03:35:45;27.13;;;16.53;;
8704;SDS011;4389;41.932;25.904;2023-02-21T03:38:12;24.03;;;15.57;;
8704;SDS011;4389;41.932;25.904;2023-02-21T03:40:41;26.23;;;17.67;;
8704;SDS011;4389;41.932;25.904;2023-02-21T03:43:08;32.67;;;26.37;;
8704;SDS011;4389;41.932;25.904;2023-02-21T03:45:35;23.87;;;18.27;;
8704;SDS011;4389;41.932;25.904;2023-02-21T03:48:02;24.83;;;17.03;;
8704;SDS011;4389;41.932;25.904;2023-02-21T03:50:29;24.77;;;13.43;;
8704;SDS011;4389;41.932;25.904;2023-02-21T03:52:56;13.90;;;11.03;;
8704;SDS011;4389;41.932;25.904;2023-02-21T03:55:23;19.03;;;15.00;;
8704;SDS011;4389;41.932;25.904;2023-02-21T03:57:51;14.27;;;11.83;;
8704;SDS011;4389;41.932;25.904;2023-02-21T04:00:18;17.07;;;9.50;;
8704;SDS011;4389;41.932;25.904;2023-02-21T04:02:45;15.37;;;8.33;;
8704;SDS011;4389;41.932;25.904;2023-02-21T04:05:12;9.87;;;7.27;;
8704;SDS011;4389;41.932;25.904;2023-02-21T04:07:39;13.10;;;7.60;;
8704;SDS011;4389;41.932;25.904;2023-02-21T04:10:06;9.73;;;7.40;;
8704;SDS011;4389;41.932;25.904;2023-02-21T04:12:33;19.73;;;8.10;;
8704;SDS011;4389;41.932;25.904;2023-02-21T04:15:01;17.17;;;8.30;;
8704;SDS011;4389;41.932;25.904;2023-02-21T04:17:28;19.00;;;8.07;;
8704;SDS011;4389;41.932;25.904;2023-02-21T04:19:55;15.67;;;8.00;;
8704;SDS011;4389;41.932;25.904;2023-02-21T04:22:22;23.50;;;8.87;;
8704;SDS011;4389;41.932;25.904;2023-02-21T04:24:49;17.53;;;9.47;;
8704;SDS011;4389;41.932;25.904;2023-02-21T04:27:16;14.10;;;8.50;;
8704;SDS011;4389;41.932;25.904;2023-02-21T04:29:43;14.33;;;7.70;;
8704;SDS011;4389;41.932;25.904;2023-02-21T04:32:11;11.20;;;8.43;;
8704;SDS011;4389;41.932;25.904;2023-02-21T04:34:38;14.23;;;8.20;;
8704;SDS011;4389;41.932;25.904;2023-02-21T04:37:05;13.17;;;7.63;;
8704;SDS011;4389;41.932;25.904;2023-02-21T04:39:31;12.77;;;8.03;;
8704;SDS011;4389;41.932;25.904;2023-02-21T04:41:58;12.27;;;8.33;;
8704;SDS011;4389;41.932;25.904;2023-02-21T04:44:25;18.40;;;8.80;;
8704;SDS011;4389;41.932;25.904;2023-02-21T04:46:52;33.37;;;9.33;;
8704;SDS011;4389;41.932;25.904;2023-02-21T04:49:20;32.30;;;9.73;;
8704;SDS011;4389;41.932;25.904;2023-02-21T04:51:49;21.47;;;9.03;;
8704;SDS011;4389;41.932;25.904;2023-02-21T04:54:16;11.97;;;8.27;;
8704;SDS011;4389;41.932;25.904;2023-02-21T04:56:42;12.83;;;8.90;;
8704;SDS011;4389;41.932;25.904;2023-02-21T04:59:09;11.30;;;9.60;;
8704;SDS011;4389;41.932;25.904;2023-02-21T05:01:36;40.20;;;27.13;;
8704;SDS011;4389;41.932;25.904;2023-02-21T05:04:03;31.27;;;22.23;;
8704;SDS011;4389;41.932;25.904;2023-02-21T05:06:31;35.27;;;30.10;;
8704;SDS011;4389;41.932;25.904;2023-02-21T05:08:58;41.87;;;28.10;;
8704;SDS011;4389;41.932;25.904;2023-02-21T05:11:25;32.50;;;21.30;;
8704;SDS011;4389;41.932;25.904;2023-02-21T05:13:52;25.73;;;17.23;;
8704;SDS011;4389;41.932;25.904;2023-02-21T05:16:19;26.57;;;20.13;;
8704;SDS011;4389;41.932;25.904;2023-02-21T05:18:47;50.77;;;42.27;;
8704;SDS011;4389;41.932;25.904;2023-02-21T05:21:14;51.33;;;43.27;;
8704;SDS011;4389;41.932;25.904;2023-02-21T05:23:43;56.10;;;40.97;;
8704;SDS011;4389;41.932;25.904;2023-02-21T05:26:20;31.80;;;27.47;;
8704;SDS011;4389;41.932;25.904;2023-02-21T05:28:48;30.40;;;21.00;;
8704;SDS011;4389;41.932;25.904;2023-02-21T05:31:16;27.20;;;13.20;;
8704;SDS011;4389;41.932;25.904;2023-02-21T05:33:43;29.13;;;12.37;;
8704;SDS011;4389;41.932;25.904;2023-02-21T05:36:10;26.27;;;13.07;;
8704;SDS011;4389;41.932;25.904;2023-02-21T05:38:45;20.33;;;12.47;;
8704;SDS011;4389;41.932;25.904;2023-02-21T05:41:13;23.33;;;13.73;;
8704;SDS011;4389;41.932;25.904;2023-02-21T05:43:42;31.87;;;12.90;;
8704;SDS011;4389;41.932;25.904;2023-02-21T05:46:16;42.93;;;17.37;;
8704;SDS011;4389;41.932;25.904;2023-02-21T05:48:44;33.97;;;14.90;;
8704;SDS011;4389;41.932;25.904;2023-02-21T05:51:11;117.00;;;18.77;;
8704;SDS011;4389;41.932;25.904;2023-02-21T05:53:38;77.27;;;17.77;;
8704;SDS011;4389;41.932;25.904;2023-02-21T05:56:06;55.67;;;17.37;;
8704;SDS011;4389;41.932;25.904;2023-02-21T05:58:33;30.97;;;20.13;;
8704;SDS011;4389;41.932;25.904;2023-02-21T06:01:00;32.57;;;20.23;;
8704;SDS011;4389;41.932;25.904;2023-02-21T06:03:27;33.77;;;18.47;;
8704;SDS011;4389;41.932;25.904;2023-02-21T06:05:54;33.77;;;22.93;;
8704;SDS011;4389;41.932;25.904;2023-02-21T06:08:21;41.93;;;25.17;;
8704;SDS011;4389;41.932;25.904;2023-02-21T06:10:47;50.13;;;25.97;;
8704;SDS011;4389;41.932;25.904;2023-02-21T06:13:16;34.50;;;23.73;;
8704;SDS011;4389;41.932;25.904;2023-02-21T06:15:43;41.57;;;25.33;;
8704;SDS011;4389;41.932;25.904;2023-02-21T06:18:11;33.37;;;19.40;;
8704;SDS011;4389;41.932;25.904;2023-02-21T06:20:38;37.90;;;21.13;;
8704;SDS011;4389;41.932;25.904;2023-02-21T06:23:05;26.40;;;17.63;;
8704;SDS011;4389;41.932;25.904;2023-02-21T06:25:32;26.70;;;18.00;;
8704;SDS011;4389;41.932;25.904;2023-02-21T06:27:58;28.50;;;18.27;;
8704;SDS011;4389;41.932;25.904;2023-02-21T06:30:27;38.47;;;19.70;;
8704;SDS011;4389;41.932;25.904;2023-02-21T06:32:53;31.23;;;18.07;;
8704;SDS011;4389;41.932;25.904;2023-02-21T06:35:20;25.23;;;16.93;;
8704;SDS011;4389;41.932;25.904;2023-02-21T06:37:47;31.03;;;17.13;;
8704;SDS011;4389;41.932;25.904;2023-02-21T06:40:14;33.27;;;15.90;;
8704;SDS011;4389;41.932;25.904;2023-02-21T06:42:41;27.60;;;16.50;;
8704;SDS011;4389;41.932;25.904;2023-02-21T06:45:08;30.53;;;17.80;;
8704;SDS011;4389;41.932;25.904;2023-02-21T06:47:36;28.43;;;17.87;;
8704;SDS011;4389;41.932;25.904;2023-02-21T06:50:03;24.20;;;16.87;;
8704;SDS011;4389;41.932;25.904;2023-02-21T06:52:30;34.70;;;20.83;;
8704;SDS011;4389;41.932;25.904;2023-02-21T06:54:57;29.83;;;15.97;;
8704;SDS011;4389;41.932;25.904;2023-02-21T06:57:24;20.53;;;14.07;;
8704;SDS011;4389;41.932;25.904;2023-02-21T06:59:51;23.10;;;15.13;;
8704;SDS011;4389;41.932;25.904;2023-02-21T07:02:18;31.00;;;16.60;;
8704;SDS011;4389;41.932;25.904;2023-02-21T07:04:46;22.10;;;15.20;;
8704;SDS011;4389;41.932;25.904;2023-02-21T07:07:13;21.73;;;14.60;;
8704;SDS011;4389;41.932;25.904;2023-02-21T07:09:41;26.00;;;14.70;;
8704;SDS011;4389;41.932;25.904;2023-02-21T07:12:07;20.20;;;13.83;;
8704;SDS011;4389;41.932;25.904;2023-02-21T07:14:34;23.57;;;14.70;;
8704;SDS011;4389;41.932;25.904;2023-02-21T07:17:01;33.73;;;15.10;;
8704;SDS011;4389;41.932;25.904;2023-02-21T07:19:28;23.90;;;16.90;;
8704;SDS011;4389;41.932;25.904;2023-02-21T07:21:56;27.07;;;17.77;;
8704;SDS011;4389;41.932;25.904;2023-02-21T07:24:23;28.73;;;16.97;;
8704;SDS011;4389;41.932;25.904;2023-02-21T07:26:50;28.00;;;22.73;;
8704;SDS011;4389;41.932;25.904;2023-02-21T07:29:16;54.47;;;41.87;;
8704;SDS011;4389;41.932;25.904;2023-02-21T07:31:43;51.77;;;45.30;;
8704;SDS011;4389;41.932;25.904;2023-02-21T07:34:11;39.43;;;20.10;;
8704;SDS011;4389;41.932;25.904;2023-02-21T07:36:39;39.23;;;21.33;;
8704;SDS011;4389;41.932;25.904;2023-02-21T07:39:07;27.43;;;17.63;;
8704;SDS011;4389;41.932;25.904;2023-02-21T07:41:34;20.90;;;13.37;;
8704;SDS011;4389;41.932;25.904;2023-02-21T07:44:01;21.37;;;13.03;;
8704;SDS011;4389;41.932;25.904;2023-02-21T07:46:28;17.53;;;14.17;;
8704;SDS011;4389;41.932;25.904;2023-02-21T07:48:55;28.37;;;15.70;;
8704;SDS011;4389;41.932;25.904;2023-02-21T07:51:26;24.53;;;14.40;;
8704;SDS011;4389;41.932;25.904;2023-02-21T07:53:53;35.47;;;16.03;;
8704;SDS011;4389;41.932;25.904;2023-02-21T07:56:21;23.10;;;16.63;;
8704;SDS011;4389;41.932;25.904;2023-02-21T07:58:48;24.07;;;15.93;;
8704;SDS011;4389;41.932;25.904;2023-02-21T08:01:15;29.73;;;16.60;;
8704;SDS011;4389;41.932;25.904;2023-02-21T08:03:42;18.47;;;12.83;;
8704;SDS011;4389;41.932;25.904;2023-02-21T08:06:09;23.60;;;12.27;;
8704;SDS011;4389;41.932;25.904;2023-02-21T08:08:36;17.03;;;13.07;;
8704;SDS011;4389;41.932;25.904;2023-02-21T08:11:03;26.23;;;12.63;;
8704;SDS011;4389;41.932;25.904;2023-02-21T08:13:32;18.83;;;11.40;;
8704;SDS011;4389;41.932;25.904;2023-02-21T08:15:58;22.67;;;14.77;;
8704;SDS011;4389;41.932;25.904;2023-02-21T08:18:25;26.57;;;13.23;;
8704;SDS011;4389;41.932;25.904;2023-02-21T08:20:52;24.90;;;11.83;;
8704;SDS011;4389;41.932;25.904;2023-02-21T08:23:20;17.20;;;11.93;;
8704;SDS011;4389;41.932;25.904;2023-02-21T08:25:48;23.17;;;11.73;;
8704;SDS011;4389;41.932;25.904;2023-02-21T08:28:15;22.43;;;13.50;;
8704;SDS011;4389;41.932;25.904;2023-02-21T08:30:44;30.50;;;14.17;;
8704;SDS011;4389;41.932;25.904;2023-02-21T08:33:10;30.33;;;13.67;;
8704;SDS011;4389;41.932;25.904;2023-02-21T08:35:38;19.30;;;13.17;;
8704;SDS011;4389;41.932;25.904;2023-02-21T08:38:04;28.27;;;14.90;;
8704;SDS011;4389;41.932;25.904;2023-02-21T08:40:32;23.90;;;14.00;;
8704;SDS011;4389;41.932;25.904;2023-02-21T08:42:59;35.70;;;13.30;;
8704;SDS011;4389;41.932;25.904;2023-02-21T08:45:26;22.00;;;12.77;;
8704;SDS011;4389;41.932;25.904;2023-02-21T08:47:56;18.67;;;13.50;;
8704;SDS011;4389;41.932;25.904;2023-02-21T08:50:24;30.57;;;13.93;;
8704;SDS011;4389;41.932;25.904;2023-02-21T08:52:52;19.20;;;11.80;;
8704;SDS011;4389;41.932;25.904;2023-02-21T08:55:20;16.13;;;11.80;;
8704;SDS011;4389;41.932;25.904;2023-02-21T08:57:47;17.27;;;13.03;;
8704;SDS011;4389;41.932;25.904;2023-02-21T09:00:16;18.70;;;11.40;;
8704;SDS011;4389;41.932;25.904;2023-02-21T09:02:44;16.33;;;12.43;;
8704;SDS011;4389;41.932;25.904;2023-02-21T09:05:13;27.13;;;13.60;;
8704;SDS011;4389;41.932;25.904;2023-02-21T09:07:41;16.97;;;12.00;;
8704;SDS011;4389;41.932;25.904;2023-02-21T09:10:10;29.70;;;13.60;;
8704;SDS011;4389;41.932;25.904;2023-02-21T09:12:37;37.33;;;15.03;;
8704;SDS011;4389;41.932;25.904;2023-02-21T09:15:04;229.07;;;25.57;;
8704;SDS011;4389;41.932;25.904;2023-02-21T09:17:32;34.43;;;13.53;;
8704;SDS011;4389;41.932;25.904;2023-02-21T09:19:59;39.47;;;13.00;;
8704;SDS011;4389;41.932;25.904;2023-02-21T09:22:27;26.00;;;11.67;;
8704;SDS011;4389;41.932;25.904;2023-02-21T09:24:55;21.20;;;12.43;;
8704;SDS011;4389;41.932;25.904;2023-02-21T09:27:22;21.47;;;11.93;;
8704;SDS011;4389;41.932;25.904;2023-02-21T09:30:01;16.67;;;11.33;;
8704;SDS011;4389;41.932;25.904;2023-02-21T09:32:32;18.30;;;11.90;;
8704;SDS011;4389;41.932;25.904;2023-02-21T09:34:59;20.10;;;10.10;;
8704;SDS011;4389;41.932;25.904;2023-02-21T09:37:28;17.53;;;9.43;;
8704;SDS011;4389;41.932;25.904;2023-02-21T09:39:56;13.70;;;9.00;;
8704;SDS011;4389;41.932;25.904;2023-02-21T09:42:25;12.50;;;8.73;;
8704;SDS011;4389;41.932;25.904;2023-02-21T09:44:55;12.37;;;8.83;;
8704;SDS011;4389;41.932;25.904;2023-02-21T09:47:25;10.93;;;7.83;;
8704;SDS011;4389;41.932;25.904;2023-02-21T09:49:57;11.57;;;6.90;;
8704;SDS011;4389;41.932;25.904;2023-02-21T09:52:31;10.20;;;6.97;;
8704;SDS011;4389;41.932;25.904;2023-02-21T09:55:01;9.67;;;7.40;;
8704;SDS011;4389;41.932;25.904;2023-02-21T09:57:34;12.70;;;7.53;;
8704;SDS011;4389;41.932;25.904;2023-02-21T10:00:05;19.07;;;11.67;;
8704;SDS011;4389;41.932;25.904;2023-02-21T10:02:44;19.97;;;10.67;;
8704;SDS011;4389;41.932;25.904;2023-02-21T10:05:21;16.13;;;7.63;;
8704;SDS011;4389;41.932;25.904;2023-02-21T10:08:00;8.50;;;5.37;;
8704;SDS011;4389;41.932;25.904;2023-02-21T10:10:36;12.10;;;5.73;;
8704;SDS011;4389;41.932;25.904;2023-02-21T10:13:09;10.03;;;2.40;;
8704;SDS011;4389;41.932;25.904;2023-02-21T10:15:47;18.40;;;3.70;;
8704;SDS011;4389;41.932;25.904;2023-02-21T10:18:24;2.63;;;1.70;;
8704;SDS011;4389;41.932;25.904;2023-02-21T10:20:59;12.73;;;2.27;;
8704;SDS011;4389;41.932;25.904;2023-02-21T10:23:33;7.83;;;2.20;;
8704;SDS011;4389;41.932;25.904;2023-02-21T10:26:05;3.60;;;2.00;;
8704;SDS011;4389;41.932;25.904;2023-02-21T10:28:35;8.30;;;1.90;;
8704;SDS011;4389;41.932;25.904;2023-02-21T10:31:05;4.30;;;2.00;;
8704;SDS011;4389;41.932;25.904;2023-02-21T10:33:35;6.90;;;2.63;;
8704;SDS011;4389;41.932;25.904;2023-02-21T10:36:08;5.70;;;2.27;;
8704;SDS011;4389;41.932;25.904;2023-02-21T10:38:38;16.37;;;2.73;;
8704;SDS011;4389;41.932;25.904;2023-02-21T10:41:08;3.17;;;1.60;;
8704;SDS011;4389;41.932;25.904;2023-02-21T10:43:36;38.37;;;3.53;;
8704;SDS011;4389;41.932;25.904;2023-02-21T10:46:10;2.47;;;1.50;;
8704;SDS011;4389;41.932;25.904;2023-02-21T10:48:42;15.43;;;2.30;;
8704;SDS011;4389;41.932;25.904;2023-02-21T10:51:12;4.27;;;2.00;;
8704;SDS011;4389;41.932;25.904;2023-02-21T10:53:42;2.73;;;1.43;;
8704;SDS011;4389;41.932;25.904;2023-02-21T10:56:23;5.00;;;1.70;;
8704;SDS011;4389;41.932;25.904;2023-02-21T10:58:53;4.87;;;1.70;;
8704;SDS011;4389;41.932;25.904;2023-02-21T11:01:29;2.13;;;1.50;;
8704;SDS011;4389;41.932;25.904;2023-02-21T11:03:59;3.93;;;1.53;;
8704;SDS011;4389;41.932;25.904;2023-02-21T11:06:31;5.00;;;1.70;;
8704;SDS011;4389;41.932;25.904;2023-02-21T11:09:03;5.17;;;1.53;;
8704;SDS011;4389;41.932;25.904;2023-02-21T11:11:58;2.10;;;1.70;;
8704;SDS011;4389;41.932;25.904;2023-02-21T11:14:27;7.27;;;1.50;;
8704;SDS011;4389;41.932;25.904;2023-02-21T11:19:47;4.17;;;1.53;;
8704;SDS011;4389;41.932;25.904;2023-02-21T11:22:17;8.13;;;1.93;;
8704;SDS011;4389;41.932;25.904;2023-02-21T11:24:53;2.10;;;1.60;;
8704;SDS011;4389;41.932;25.904;2023-02-21T11:27:26;3.00;;;1.90;;
8704;SDS011;4389;41.932;25.904;2023-02-21T11:29:54;5.60;;;2.17;;
8704;SDS011;4389;41.932;25.904;2023-02-21T11:32:26;3.17;;;1.40;;
8704;SDS011;4389;41.932;25.904;2023-02-21T11:35:03;6.10;;;1.83;;
8704;SDS011;4389;41.932;25.904;2023-02-21T11:37:34;24.03;;;3.27;;
8704;SDS011;4389;41.932;25.904;2023-02-21T11:40:22;3.27;;;1.63;;
8704;SDS011;4389;41.932;25.904;2023-02-21T11:42:50;2.30;;;1.57;;
8704;SDS011;4389;41.932;25.904;2023-02-21T11:45:18;5.10;;;1.63;;
8704;SDS011;4389;41.932;25.904;2023-02-21T11:47:52;5.97;;;2.07;;
8704;SDS011;4389;41.932;25.904;2023-02-21T11:50:25;3.80;;;1.70;;
8704;SDS011;4389;41.932;25.904;2023-02-21T11:52:59;3.23;;;1.93;;
8704;SDS011;4389;41.932;25.904;2023-02-21T11:55:33;5.03;;;2.20;;
8704;SDS011;4389;41.932;25.904;2023-02-21T11:58:03;6.90;;;1.70;;
8704;SDS011;4389;41.932;25.904;2023-02-21T12:00:39;5.40;;;1.80;;
8704;SDS011;4389;41.932;25.904;2023-02-21T12:06:26;3.40;;;1.87;;
8704;SDS011;4389;41.932;25.904;2023-02-21T12:08:57;2.03;;;1.40;;
8704;SDS011;4389;41.932;25.904;2023-02-21T12:11:44;5.43;;;1.70;;
8704;SDS011;4389;41.932;25.904;2023-02-21T12:14:25;4.47;;;1.30;;
8704;SDS011;4389;41.932;25.904;2023-02-21T12:17:12;15.47;;;13.90;;
8704;SDS011;4389;41.932;25.904;2023-02-21T12:19:58;1.77;;;1.30;;
8704;SDS011;4389;41.932;25.904;2023-02-21T12:25:26;6.53;;;1.33;;
8704;SDS011;4389;41.932;25.904;2023-02-21T12:28:01;1.50;;;1.00;;
8704;SDS011;4389;41.932;25.904;2023-02-21T12:30:43;1.80;;;1.03;;
8704;SDS011;4389;41.932;25.904;2023-02-21T12:33:25;8.17;;;1.60;;
8704;SDS011;4389;41.932;25.904;2023-02-21T12:36:05;5.20;;;1.50;;
8704;SDS011;4389;41.932;25.904;2023-02-21T12:38:42;4.47;;;1.50;;
8704;SDS011;4389;41.932;25.904;2023-02-21T12:41:25;2.50;;;1.13;;
8704;SDS011;4389;41.932;25.904;2023-02-21T12:44:05;2.63;;;1.73;;
8704;SDS011;4389;41.932;25.904;2023-02-21T12:46:39;2.40;;;1.73;;
8704;SDS011;4389;41.932;25.904;2023-02-21T12:49:11;1.57;;;1.07;;
8704;SDS011;4389;41.932;25.904;2023-02-21T12:51:43;5.73;;;1.27;;
8704;SDS011;4389;41.932;25.904;2023-02-21T12:54:15;3.50;;;1.40;;
8704;SDS011;4389;41.932;25.904;2023-02-21T12:56:46;9.30;;;1.67;;
8704;SDS011;4389;41.932;25.904;2023-02-21T12:59:22;3.97;;;1.33;;
8704;SDS011;4389;41.932;25.904;2023-02-21T13:01:55;12.77;;;1.93;;
8704;SDS011;4389;41.932;25.904;2023-02-21T13:04:30;4.97;;;1.40;;
8704;SDS011;4389;41.932;25.904;2023-02-21T13:07:04;2.70;;;1.57;;
8704;SDS011;4389;41.932;25.904;2023-02-21T13:09:44;5.93;;;2.07;;
8704;SDS011;4389;41.932;25.904;2023-02-21T13:12:17;4.50;;;1.60;;
8704;SDS011;4389;41.932;25.904;2023-02-21T13:14:49;5.30;;;1.90;;
8704;SDS011;4389;41.932;25.904;2023-02-21T13:17:20;2.83;;;1.33;;
8704;SDS011;4389;41.932;25.904;2023-02-21T13:19:48;3.20;;;1.90;;
8704;SDS011;4389;41.932;25.904;2023-02-21T13:25:45;7.97;;;1.97;;
8704;SDS011;4389;41.932;25.904;2023-02-21T13:28:23;1.67;;;1.30;;
8704;SDS011;4389;41.932;25.904;2023-02-21T13:30:57;3.20;;;1.40;;
8704;SDS011;4389;41.932;25.904;2023-02-21T13:33:27;6.00;;;2.00;;
8704;SDS011;4389;41.932;25.904;2023-02-21T13:36:18;4.00;;;1.50;;
8704;SDS011;4389;41.932;25.904;2023-02-21T13:38:55;6.87;;;1.50;;
8704;SDS011;4389;41.932;25.904;2023-02-21T13:41:26;20.07;;;2.97;;
8704;SDS011;4389;41.932;25.904;2023-02-21T13:43:55;4.03;;;1.47;;
8704;SDS011;4389;41.932;25.904;2023-02-21T13:49:35;4.60;;;1.10;;
8704;SDS011;4389;41.932;25.904;2023-02-21T13:52:14;7.27;;;1.47;;
8704;SDS011;4389;41.932;25.904;2023-02-21T13:55:08;6.30;;;1.70;;
8704;SDS011;4389;41.932;25.904;2023-02-21T13:57:46;2.80;;;1.30;;
8704;SDS011;4389;41.932;25.904;2023-02-21T14:08:59;11.20;;;1.80;;
8704;SDS011;4389;41.932;25.904;2023-02-21T14:11:33;5.63;;;1.70;;
8704;SDS011;4389;41.932;25.904;2023-02-21T14:14:03;2.23;;;1.60;;
8704;SDS011;4389;41.932;25.904;2023-02-21T14:16:32;5.37;;;1.50;;
8704;SDS011;4389;41.932;25.904;2023-02-21T14:19:02;6.93;;;1.60;;
8704;SDS011;4389;41.932;25.904;2023-02-21T14:21:34;1.87;;;1.30;;
8704;SDS011;4389;41.932;25.904;2023-02-21T14:24:03;2.77;;;1.60;;
8704;SDS011;4389;41.932;25.904;2023-02-21T14:26:41;1.97;;;1.40;;
8704;SDS011;4389;41.932;25.904;2023-02-21T14:32:20;4.13;;;1.50;;
8704;SDS011;4389;41.932;25.904;2023-02-21T14:34:53;5.60;;;2.07;;
8704;SDS011;4389;41.932;25.904;2023-02-21T14:37:23;2.83;;;1.67;;
8704;SDS011;4389;41.932;25.904;2023-02-21T14:39:54;6.27;;;1.90;;
8704;SDS011;4389;41.932;25.904;2023-02-21T14:42:28;4.57;;;2.17;;
8704;SDS011;4389;41.932;25.904;2023-02-21T14:45:25;4.00;;;2.10;;
8704;SDS011;4389;41.932;25.904;2023-02-21T14:48:09;3.37;;;1.97;;
8704;SDS011;4389;41.932;25.904;2023-02-21T14:54:12;3.77;;;2.47;;
8704;SDS011;4389;41.932;25.904;2023-02-21T14:56:55;3.80;;;1.83;;
8704;SDS011;4389;41.932;25.904;2023-02-21T14:59:42;2.33;;;2.13;;
8704;SDS011;4389;41.932;25.904;2023-02-21T15:02:26;13.33;;;2.50;;
8704;SDS011;4389;41.932;25.904;2023-02-21T15:04:59;6.53;;;2.20;;
8704;SDS011;4389;41.932;25.904;2023-02-21T15:07:33;7.27;;;2.40;;
8704;SDS011;4389;41.932;25.904;2023-02-21T15:10:18;4.40;;;2.30;;
8704;SDS011;4389;41.932;25.904;2023-02-21T15:12:49;6.80;;;2.93;;
8704;SDS011;4389;41.932;25.904;2023-02-21T15:15:19;6.67;;;2.90;;
8704;SDS011;4389;41.932;25.904;2023-02-21T15:18:00;10.33;;;3.50;;
8704;SDS011;4389;41.932;25.904;2023-02-21T15:20:29;5.30;;;3.20;;
8704;SDS011;4389;41.932;25.904;2023-02-21T15:22:58;6.83;;;3.30;;
8704;SDS011;4389;41.932;25.904;2023-02-21T15:25:29;15.97;;;3.50;;
8704;SDS011;4389;41.932;25.904;2023-02-21T15:27:57;15.77;;;3.43;;
8704;SDS011;4389;41.932;25.904;2023-02-21T15:30:27;8.87;;;3.40;;
8704;SDS011;4389;41.932;25.904;2023-02-21T15:32:58;15.77;;;3.33;;
8704;SDS011;4389;41.932;25.904;2023-02-21T15:35:30;12.27;;;4.17;;
8704;SDS011;4389;41.932;25.904;2023-02-21T15:38:02;8.07;;;3.77;;
8704;SDS011;4389;41.932;25.904;2023-02-21T15:40:34;8.40;;;3.97;;
8704;SDS011;4389;41.932;25.904;2023-02-21T15:43:02;13.00;;;3.87;;
8704;SDS011;4389;41.932;25.904;2023-02-21T15:45:31;15.30;;;4.03;;
8704;SDS011;4389;41.932;25.904;2023-02-21T15:48:05;19.10;;;3.50;;
8704;SDS011;4389;41.932;25.904;2023-02-21T15:50:33;10.10;;;3.03;;
8704;SDS011;4389;41.932;25.904;2023-02-21T15:53:13;6.93;;;3.30;;
8704;SDS011;4389;41.932;25.904;2023-02-21T15:55:43;7.87;;;2.57;;